Map

Track Data

SID SEASON NUMBER BASIN SUBBASIN NAME ISO_TIME NATURE LAT LON WMO_WIND WMO_PRES WMO_AGENCY TRACK_TYPE DIST2LAND LANDFALL IFLAG USA_AGENCY USA_ATCF_ID USA_LAT USA_LON USA_RECORD USA_STATUS USA_WIND USA_PRES USA_SSHS USA_R34_NE USA_R34_SE USA_R34_SW USA_R34_NW USA_R50_NE USA_R50_SE USA_R50_SW USA_R50_NW USA_R64_NE USA_R64_SE USA_R64_SW USA_R64_NW USA_POCI USA_ROCI USA_RMW USA_EYE TOKYO_LAT TOKYO_LON TOKYO_GRADE TOKYO_WIND TOKYO_PRES TOKYO_R50_DIR TOKYO_R50_LONG TOKYO_R50_SHORT TOKYO_R30_DIR TOKYO_R30_LONG TOKYO_R30_SHORT TOKYO_LAND CMA_LAT CMA_LON CMA_CAT CMA_WIND CMA_PRES HKO_LAT HKO_LON HKO_CAT HKO_WIND HKO_PRES NEWDELHI_LAT NEWDELHI_LON NEWDELHI_GRADE NEWDELHI_WIND NEWDELHI_PRES NEWDELHI_CI NEWDELHI_DP NEWDELHI_POCI REUNION_LAT REUNION_LON REUNION_TYPE REUNION_WIND REUNION_PRES REUNION_TNUM REUNION_CI REUNION_RMW REUNION_R34_NE REUNION_R34_SE REUNION_R34_SW REUNION_R34_NW REUNION_R50_NE REUNION_R50_SE REUNION_R50_SW REUNION_R50_NW REUNION_R64_NE REUNION_R64_SE REUNION_R64_SW REUNION_R64_NW BOM_LAT BOM_LON BOM_TYPE BOM_WIND BOM_PRES BOM_TNUM BOM_CI BOM_RMW BOM_R34_NE BOM_R34_SE BOM_R34_SW BOM_R34_NW BOM_R50_NE BOM_R50_SE BOM_R50_SW BOM_R50_NW BOM_R64_NE BOM_R64_SE BOM_R64_SW BOM_R64_NW BOM_ROCI BOM_POCI BOM_EYE BOM_POS_METHOD BOM_PRES_METHOD NADI_LAT NADI_LON NADI_CAT NADI_WIND NADI_PRES WELLINGTON_LAT WELLINGTON_LON WELLINGTON_WIND WELLINGTON_PRES DS824_LAT DS824_LON DS824_STAGE DS824_WIND DS824_PRES TD9636_LAT TD9636_LON TD9636_STAGE TD9636_WIND TD9636_PRES TD9635_LAT TD9635_LON TD9635_WIND TD9635_PRES TD9635_ROCI NEUMANN_LAT NEUMANN_LON NEUMANN_CLASS NEUMANN_WIND NEUMANN_PRES MLC_LAT MLC_LON MLC_CLASS MLC_WIND MLC_PRES USA_GUST BOM_GUST BOM_GUST_PER REUNION_GUST REUNION_GUST_PER USA_SEAHGT USA_SEARAD_NE USA_SEARAD_SE USA_SEARAD_SW USA_SEARAD_NW STORM_SPEED STORM_DIR
1975292N16073 1975 115 NI AS NOT_NAMED 1975-10-19 00:00:00 TS 16.4000 72.5000 main 86 85 O________OO___ jtwc_io IO161975 16.4000 72.5000 -1 16.4000 72.5000 TC 16.4000 72.5000 1 2 341
1975292N16073 1975 115 NI AS NOT_NAMED 1975-10-19 03:00:00 TS 16.4915 72.4561 main 85 85 P________PP___ IO161975 16.4850 72.4750 -1 16.4850 72.4750 TC 16.5046 72.4184 1 2 330
1975292N16073 1975 115 NI AS NOT_NAMED 1975-10-19 06:00:00 TS 16.6091 72.3732 main 95 95 O________OP___ jtwc_io IO161975 16.6000 72.4000 -1 16.6000 72.4000 TC 16.6273 72.3195 1 4 321
1975292N16073 1975 115 NI AS NOT_NAMED 1975-10-19 09:00:00 TS 16.7755 72.2202 main 117 117 P________PP___ IO161975 16.7700 72.2374 -1 16.7700 72.2374 TC 16.7864 72.1858 1 5 317
1975292N16073 1975 115 NI AS NOT_NAMED 1975-10-19 12:00:00 TS 17.0000 72.0000 main 134 134 O________OO___ jtwc_io IO161975 17.0000 72.0000 -1 17.0000 72.0000 TC 17.0000 72.0000 1 7 317
1975292N16073 1975 115 NI AS NOT_NAMED 1975-10-19 15:00:00 TS 17.2825 71.7270 main 152 150 P________PP___ IO161975 17.2850 71.7150 -1 17.2850 71.7150 TC 17.2773 71.7508 1 8 317
1975292N16073 1975 115 NI AS NOT_NAMED 1975-10-19 18:00:00 TS 17.5976 71.4177 main 172 168 O________OP___ jtwc_io IO161975 17.6000 71.4000 -1 17.6000 71.4000 TC 17.5927 71.4532 1 9 317
1975292N16073 1975 115 NI AS NOT_NAMED 1975-10-19 21:00:00 TS 17.9139 71.1096 main 193 191 P________PP___ IO161975 17.9150 71.1000 -1 17.9150 71.1000 TC 17.9117 71.1289 1 8 316
1975292N16073 1975 115 NI AS NOT_NAMED 1975-10-20 00:00:00 TS 18.2000 70.8000 main 221 221 O________OO___ jtwc_io IO161975 18.2000 70.8000 -1 18.2000 70.8000 TC 18.2000 70.8000 1 8 311
1975292N16073 1975 115 NI AS NOT_NAMED 1975-10-20 03:00:00 TS 18.4213 70.4971 main 248 240 P________PP___ IO161975 18.4225 70.4999 -1 18.4225 70.4999 TC 18.4190 70.4916 1 7 305
1975292N16073 1975 115 NI AS NOT_NAMED 1975-10-20 06:00:00 TS 18.6008 70.1949 main 243 235 O________OP___ jtwc_io IO161975 18.6000 70.2000 -1 18.6000 70.2000 TC 18.6024 70.1846 1 7 300
1975292N16073 1975 115 NI AS NOT_NAMED 1975-10-20 09:00:00 TS 18.7582 69.8901 main 232 231 P________PP___ IO161975 18.7575 69.8924 -1 18.7575 69.8924 TC 18.7596 69.8854 1 6 298
1975292N16073 1975 115 NI AS NOT_NAMED 1975-10-20 12:00:00 TS 18.9000 69.6000 main 237 233 O________OO___ jtwc_io IO161975 18.9000 69.6000 -1 18.9000 69.6000 TC 18.9000 69.6000 2 6 298
1975292N16073 1975 115 NI AS NOT_NAMED 1975-10-20 15:00:00 TS 19.0433 69.3306 main 246 237 P________PP___ IO161975 19.0574 69.3425 -1 19.0574 69.3425 TC 19.0150 69.3069 2 6 299
1975292N16073 1975 115 NI AS NOT_NAMED 1975-10-20 18:00:00 TS 19.1734 69.0774 main 239 239 O________OP___ jtwc_io IO161975 19.2000 69.1000 XX 35 -5 19.2000 69.1000 TC 35 19.1200 69.0322 2 5 295
1975292N16073 1975 115 NI AS NOT_NAMED 1975-10-20 21:00:00 TS 19.2700 68.8154 main 248 246 P________PP___ IO161975 19.2850 68.8274 XX 37 -5 19.2850 68.8274 TC 37 19.2401 68.7914 2 5 297
1975292N16073 1975 115 NI AS NOT_NAMED 1975-10-21 00:00:00 TS 19.4000 68.6000 main 252 244 O________OO___ jtwc_io IO161975 19.4000 68.6000 XX 40 -5 19.4000 68.6000 TC 40 19.4000 68.6000 2 5 318
1975292N16073 1975 115 NI AS NOT_NAMED 1975-10-21 03:00:00 TS 19.6374 68.4648 main 244 228 P________PP___ IO161975 19.6199 68.4700 XX 45 -5 19.6199 68.4700 TC 45 19.6723 68.4544 2 6 339
1975292N16073 1975 115 NI AS NOT_NAMED 1975-10-21 06:00:00 TS 19.9266 68.3867 main 228 213 O________OP___ jtwc_io IO161975 19.9000 68.4000 XX 50 -5 19.9000 68.4000 TC 50 19.9798 68.3600 2 6 348
1975292N16073 1975 115 NI AS NOT_NAMED 1975-10-21 09:00:00 TS 20.2491 68.3269 main 213 190 P________PP___ IO161975 20.2375 68.3350 XX 55 -5 20.2375 68.3350 TC 55 20.2724 68.3106 2 6 352
1975292N16073 1975 115 NI AS NOT_NAMED 1975-10-21 12:00:00 TS 20.5000 68.3000 main 190 190 O________OO___ jtwc_io IO161975 20.5000 68.3000 XX 60 -5 20.5000 68.3000 TC 60 20.5000 68.3000 4 3 354
1975292N16073 1975 115 NI AS NOT_NAMED 1975-10-21 15:00:00 TS 20.5410 68.2816 main 190 190 P________PP___ IO161975 20.5375 68.2775 XX 65 -5 20.5375 68.2775 TC 65 20.5480 68.2899 4 0 0
1975292N16073 1975 115 NI AS NOT_NAMED 1975-10-21 18:00:00 TS 20.5116 68.3060 main 190 182 O________OP___ jtwc_io IO161975 20.5000 68.3000 XX 70 -5 20.5000 68.3000 TC 70 20.5348 68.3180 4 1 107
1975292N16073 1975 115 NI AS NOT_NAMED 1975-10-21 21:00:00 TS 20.5131 68.3807 main 182 167 P________PP___ IO161975 20.5050 68.3776 XX 75 -5 20.5050 68.3776 TC 75 20.5292 68.3871 4 2 64
1975292N16073 1975 115 NI AS NOT_NAMED 1975-10-22 00:00:00 TS 20.6000 68.5000 main 167 144 O________OO___ jtwc_io IO161975 20.6000 68.5000 XX 80 -5 20.6000 68.5000 TC 80 20.6000 68.5000 4 4 34
1975292N16073 1975 115 NI AS NOT_NAMED 1975-10-22 03:00:00 TS 20.8521 68.6225 main 136 98 P________PP___ IO161975 20.8550 68.6276 XX 80 -5 20.8550 68.6276 TC 80 20.8465 68.6124 4 7 25
1975292N16073 1975 115 NI AS NOT_NAMED 1975-10-22 06:00:00 TS 21.1914 68.7910 main 98 60 O________OP___ jtwc_io IO161975 21.2000 68.8000 XX 80 -5 21.2000 68.8000 TC 80 21.1743 68.7729 4 8 27
1975292N16073 1975 115 NI AS NOT_NAMED 1975-10-22 09:00:00 TS 21.5516 69.0024 main 53 10 P________PP___ IO161975 21.5573 69.0051 XX -5 21.5573 69.0051 TC 21.5400 68.9970 4 9 34
1975292N16073 1975 115 NI AS NOT_NAMED 1975-10-22 12:00:00 TS 21.9000 69.3000 main 10 0 O________OO___ jtwc_io IO161975 21.9000 69.3000 -1 21.9000 69.3000 TC 21.9000 69.3000 4 9 47
1975292N16073 1975 115 NI AS NOT_NAMED 1975-10-22 15:00:00 TS 22.1670 69.7112 main 0 0 P________PP___ IO161975 22.1575 69.7127 -1 22.1575 69.7127 TC 22.1860 69.7080 4 10 58
1975292N16073 1975 115 NI AS NOT_NAMED 1975-10-22 18:00:00 TS 22.4195 70.1966 main 0 0 O________OP___ jtwc_io IO161975 22.4000 70.2000 -1 22.4000 70.2000 TC 22.4585 70.1899 4 11 60
1975292N16073 1975 115 NI AS NOT_NAMED 1975-10-22 21:00:00 TS 22.7039 70.7056 main 0 0 P________PP___ IO161975 22.6925 70.7075 -1 22.6925 70.7075 TC 22.7266 70.7019 4 11 58
1975292N16073 1975 115 NI AS NOT_NAMED 1975-10-23 00:00:00 TS 23.0000 71.2000 main 0 0 O________OO___ jtwc_io IO161975 23.0000 71.2000 -1 23.0000 71.2000 TC 23.0000 71.2000 4 10 54
1975292N16073 1975 115 NI AS NOT_NAMED 1975-10-23 03:00:00 TS 23.3011 71.6068 main 0 0 P________PP___ IO161975 23.2998 71.6153 -1 23.2998 71.6153 TC 23.3037 71.5899 4 9 50
1975292N16073 1975 115 NI AS NOT_NAMED 1975-10-23 06:00:00 TS 23.6044 71.9879 main 0 0 O________OP___ jtwc_io IO161975 23.6000 72.0000 -1 23.6000 72.0000 TC 23.6131 71.9637 4 9 49
1975292N16073 1975 115 NI AS NOT_NAMED 1975-10-23 09:00:00 TS 23.9101 72.3654 main 0 0 P________PP___ IO161975 23.9071 72.3703 -1 23.9071 72.3703 TC 23.9161 72.3556 4 10 51
1975292N16073 1975 115 NI AS NOT_NAMED 1975-10-23 12:00:00 TS 24.2000 72.8000 main 0 0 O________OO___ jtwc_io IO161975 24.2000 72.8000 -1 24.2000 72.8000 TC 24.2000 72.8000 1 11 59
1975292N16073 1975 115 NI AS NOT_NAMED 1975-10-23 15:00:00 TS 24.4675 73.3782 main 0 0 P________PP___ IO161975 24.4651 73.3700 -1 24.4651 73.3700 TC 24.4724 73.3945 1 12 65
1975292N16073 1975 115 NI AS NOT_NAMED 1975-10-23 18:00:00 TS 24.7066 74.0121 main 0 0 O________OP___ jtwc_io IO161975 24.7000 74.0000 -1 24.7000 74.0000 TC 24.7197 74.0363 1 12 68
1975292N16073 1975 115 NI AS NOT_NAMED 1975-10-23 21:00:00 TS 24.9257 74.6450 main 0 0 P________PP___ IO161975 24.9226 74.6374 -1 24.9226 74.6374 TC 24.9319 74.6601 1 11 70
1975292N16073 1975 115 NI AS NOT_NAMED 1975-10-24 00:00:00 TS 25.1000 75.2000 main 0 0 O________OO___ jtwc_io IO161975 25.1000 75.2000 -1 25.1000 75.2000 TC 25.1000 75.2000 1 9 71
1975292N16073 1975 115 NI AS NOT_NAMED 1975-10-24 03:00:00 TS 25.2214 75.6092 main 0 0 P________PP___ IO161975 25.2222 75.6102 -1 25.2222 75.6102 TC 25.2197 75.6070 1 7 72
1975292N16073 1975 115 NI AS NOT_NAMED 1975-10-24 06:00:00 TS 25.3003 75.9003 main 0 0 O________OP___ jtwc_io IO161975 25.3000 75.9000 -1 25.3000 75.9000 TC 25.3009 75.9009 1 5 74
1975292N16073 1975 115 NI AS NOT_NAMED 1975-10-24 09:00:00 TS 25.3557 76.1181 main 0 0 P________PP___ IO161975 25.3551 76.1174 -1 25.3551 76.1174 TC 25.3568 76.1194 1 4 75
1975292N16073 1975 115 NI AS NOT_NAMED 1975-10-24 12:00:00 TS 25.4000 76.3000 main 0 O________OO___ jtwc_io IO161975 25.4000 76.3000 -1 25.4000 76.3000 TC 25.4000 76.3000 6 3 75

About IBTrACS Database

This database is a web-friendly format of International Best Track Archive for Climate Stewardship (IBTrACS), a global best track data archive curated by NOAA dating back to 1842.

Updated: 2021-10-21